sensor_id;sensor_type;location;lat;lon;timestamp;P1;durP1;ratioP1;P2;durP2;ratioP2
62832;SDS011;48891;49.220;6.920;2023-02-15T00:01:39;84.43;;;52.25;;
62832;SDS011;48891;49.220;6.920;2023-02-15T00:04:05;87.82;;;55.03;;
62832;SDS011;48891;49.220;6.920;2023-02-15T00:06:31;84.93;;;54.08;;
62832;SDS011;48891;49.220;6.920;2023-02-15T00:08:56;87.47;;;54.20;;
62832;SDS011;48891;49.220;6.920;2023-02-15T00:11:21;86.60;;;52.40;;
62832;SDS011;48891;49.220;6.920;2023-02-15T00:13:46;86.45;;;53.80;;
62832;SDS011;48891;49.220;6.920;2023-02-15T00:16:12;92.38;;;55.15;;
62832;SDS011;48891;49.220;6.920;2023-02-15T00:18:38;89.60;;;52.97;;
62832;SDS011;48891;49.220;6.920;2023-02-15T00:21:04;88.55;;;53.08;;
62832;SDS011;48891;49.220;6.920;2023-02-15T00:23:30;89.13;;;53.75;;
62832;SDS011;48891;49.220;6.920;2023-02-15T00:26:08;84.63;;;51.43;;
62832;SDS011;48891;49.220;6.920;2023-02-15T00:28:34;83.93;;;51.65;;
62832;SDS011;48891;49.220;6.920;2023-02-15T00:31:06;84.80;;;51.90;;
62832;SDS011;48891;49.220;6.920;2023-02-15T00:33:31;89.68;;;53.00;;
62832;SDS011;48891;49.220;6.920;2023-02-15T00:35:57;86.57;;;54.10;;
62832;SDS011;48891;49.220;6.920;2023-02-15T00:38:22;83.70;;;50.85;;
62832;SDS011;48891;49.220;6.920;2023-02-15T00:40:51;87.32;;;52.30;;
62832;SDS011;48891;49.220;6.920;2023-02-15T00:43:16;85.93;;;53.90;;
62832;SDS011;48891;49.220;6.920;2023-02-15T00:45:41;86.95;;;51.70;;
62832;SDS011;48891;49.220;6.920;2023-02-15T00:48:06;88.72;;;51.70;;
62832;SDS011;48891;49.220;6.920;2023-02-15T00:50:31;84.87;;;52.90;;
62832;SDS011;48891;49.220;6.920;2023-02-15T00:52:57;83.93;;;51.00;;
62832;SDS011;48891;49.220;6.920;2023-02-15T00:55:22;82.65;;;51.05;;
62832;SDS011;48891;49.220;6.920;2023-02-15T00:57:47;85.18;;;51.80;;
62832;SDS011;48891;49.220;6.920;2023-02-15T01:00:12;85.63;;;52.10;;
62832;SDS011;48891;49.220;6.920;2023-02-15T01:02:38;83.95;;;50.10;;
62832;SDS011;48891;49.220;6.920;2023-02-15T01:05:03;86.07;;;50.97;;
62832;SDS011;48891;49.220;6.920;2023-02-15T01:07:28;86.82;;;50.20;;
62832;SDS011;48891;49.220;6.920;2023-02-15T01:09:53;82.10;;;48.90;;
62832;SDS011;48891;49.220;6.920;2023-02-15T01:12:18;81.63;;;49.88;;
62832;SDS011;48891;49.220;6.920;2023-02-15T01:14:43;82.90;;;50.42;;
62832;SDS011;48891;49.220;6.920;2023-02-15T01:17:09;79.70;;;48.60;;
62832;SDS011;48891;49.220;6.920;2023-02-15T01:19:34;78.90;;;48.17;;
62832;SDS011;48891;49.220;6.920;2023-02-15T01:21:59;79.28;;;48.13;;
62832;SDS011;48891;49.220;6.920;2023-02-15T01:24:24;80.43;;;49.20;;
62832;SDS011;48891;49.220;6.920;2023-02-15T01:26:49;76.20;;;47.03;;
62832;SDS011;48891;49.220;6.920;2023-02-15T01:29:14;77.38;;;47.25;;
62832;SDS011;48891;49.220;6.920;2023-02-15T01:31:39;80.07;;;50.05;;
62832;SDS011;48891;49.220;6.920;2023-02-15T01:34:04;82.20;;;48.63;;
62832;SDS011;48891;49.220;6.920;2023-02-15T01:36:30;84.00;;;48.25;;
62832;SDS011;48891;49.220;6.920;2023-02-15T01:38:55;76.25;;;47.13;;
62832;SDS011;48891;49.220;6.920;2023-02-15T01:41:20;78.40;;;47.53;;
62832;SDS011;48891;49.220;6.920;2023-02-15T01:43:46;80.32;;;49.53;;
62832;SDS011;48891;49.220;6.920;2023-02-15T01:46:12;84.13;;;49.75;;
62832;SDS011;48891;49.220;6.920;2023-02-15T01:48:40;80.97;;;49.42;;
62832;SDS011;48891;49.220;6.920;2023-02-15T01:51:06;83.18;;;49.90;;
62832;SDS011;48891;49.220;6.920;2023-02-15T01:53:34;81.40;;;48.83;;
62832;SDS011;48891;49.220;6.920;2023-02-15T01:56:02;83.22;;;48.95;;
62832;SDS011;48891;49.220;6.920;2023-02-15T01:58:28;77.72;;;46.75;;
62832;SDS011;48891;49.220;6.920;2023-02-15T02:00:54;81.15;;;48.45;;
62832;SDS011;48891;49.220;6.920;2023-02-15T02:04:02;80.72;;;47.08;;
62832;SDS011;48891;49.220;6.920;2023-02-15T02:06:08;73.65;;;45.47;;
62832;SDS011;48891;49.220;6.920;2023-02-15T02:08:33;77.35;;;46.95;;
62832;SDS011;48891;49.220;6.920;2023-02-15T02:10:58;77.97;;;45.90;;
62832;SDS011;48891;49.220;6.920;2023-02-15T02:13:23;80.35;;;46.95;;
62832;SDS011;48891;49.220;6.920;2023-02-15T02:23:24;74.93;;;45.03;;
62832;SDS011;48891;49.220;6.920;2023-02-15T02:28:32;74.35;;;44.90;;
62832;SDS011;48891;49.220;6.920;2023-02-15T02:36:22;72.45;;;43.42;;
62832;SDS011;48891;49.220;6.920;2023-02-15T02:46:22;74.32;;;44.08;;
62832;SDS011;48891;49.220;6.920;2023-02-15T02:48:50;72.80;;;43.55;;
62832;SDS011;48891;49.220;6.920;2023-02-15T02:51:15;72.90;;;43.45;;
62832;SDS011;48891;49.220;6.920;2023-02-15T02:53:40;71.32;;;42.42;;
62832;SDS011;48891;49.220;6.920;2023-02-15T02:56:27;74.97;;;45.05;;
62832;SDS011;48891;49.220;6.920;2023-02-15T02:59:08;70.70;;;41.95;;
62832;SDS011;48891;49.220;6.920;2023-02-15T03:01:37;69.53;;;40.92;;
62832;SDS011;48891;49.220;6.920;2023-02-15T03:04:05;70.35;;;41.78;;
62832;SDS011;48891;49.220;6.920;2023-02-15T03:09:34;69.05;;;41.10;;
62832;SDS011;48891;49.220;6.920;2023-02-15T03:11:51;70.03;;;41.50;;
62832;SDS011;48891;49.220;6.920;2023-02-15T03:14:16;68.45;;;42.17;;
62832;SDS011;48891;49.220;6.920;2023-02-15T03:16:42;72.55;;;41.53;;
62832;SDS011;48891;49.220;6.920;2023-02-15T03:19:19;70.72;;;41.63;;
62832;SDS011;48891;49.220;6.920;2023-02-15T03:21:49;69.90;;;41.47;;
62832;SDS011;48891;49.220;6.920;2023-02-15T03:24:17;70.68;;;41.08;;
62832;SDS011;48891;49.220;6.920;2023-02-15T03:26:46;65.80;;;39.95;;
62832;SDS011;48891;49.220;6.920;2023-02-15T03:29:11;69.60;;;40.28;;
62832;SDS011;48891;49.220;6.920;2023-02-15T03:31:38;66.93;;;40.20;;
62832;SDS011;48891;49.220;6.920;2023-02-15T03:34:06;65.68;;;39.70;;
62832;SDS011;48891;49.220;6.920;2023-02-15T03:36:41;66.13;;;39.67;;
62832;SDS011;48891;49.220;6.920;2023-02-15T03:39:10;67.65;;;40.35;;
62832;SDS011;48891;49.220;6.920;2023-02-15T03:41:39;64.43;;;37.78;;
62832;SDS011;48891;49.220;6.920;2023-02-15T03:44:06;66.15;;;39.03;;
62832;SDS011;48891;49.220;6.920;2023-02-15T03:46:52;64.28;;;38.67;;
62832;SDS011;48891;49.220;6.920;2023-02-15T03:50:20;63.80;;;37.13;;
62832;SDS011;48891;49.220;6.920;2023-02-15T03:52:14;66.68;;;38.50;;
62832;SDS011;48891;49.220;6.920;2023-02-15T03:54:40;65.05;;;38.67;;
62832;SDS011;48891;49.220;6.920;2023-02-15T03:57:07;64.53;;;37.45;;
62832;SDS011;48891;49.220;6.920;2023-02-15T03:59:32;65.45;;;38.97;;
62832;SDS011;48891;49.220;6.920;2023-02-15T04:02:13;63.25;;;37.78;;
62832;SDS011;48891;49.220;6.920;2023-02-15T04:04:44;65.55;;;38.00;;
62832;SDS011;48891;49.220;6.920;2023-02-15T04:07:09;62.38;;;36.58;;
62832;SDS011;48891;49.220;6.920;2023-02-15T04:09:35;54.67;;;32.80;;
62832;SDS011;48891;49.220;6.920;2023-02-15T04:12:00;57.83;;;33.67;;
62832;SDS011;48891;49.220;6.920;2023-02-15T04:14:25;54.83;;;32.60;;
62832;SDS011;48891;49.220;6.920;2023-02-15T04:16:50;58.95;;;34.30;;
62832;SDS011;48891;49.220;6.920;2023-02-15T04:19:15;58.95;;;35.50;;
62832;SDS011;48891;49.220;6.920;2023-02-15T04:21:40;58.33;;;35.07;;
62832;SDS011;48891;49.220;6.920;2023-02-15T04:24:06;62.85;;;36.53;;
62832;SDS011;48891;49.220;6.920;2023-02-15T04:26:31;57.05;;;34.42;;
62832;SDS011;48891;49.220;6.920;2023-02-15T04:28:56;56.13;;;33.70;;
62832;SDS011;48891;49.220;6.920;2023-02-15T04:31:21;55.72;;;33.63;;
62832;SDS011;48891;49.220;6.920;2023-02-15T04:33:46;55.38;;;32.60;;
62832;SDS011;48891;49.220;6.920;2023-02-15T04:36:12;61.03;;;34.78;;
62832;SDS011;48891;49.220;6.920;2023-02-15T04:38:37;58.10;;;34.00;;
62832;SDS011;48891;49.220;6.920;2023-02-15T04:41:02;53.05;;;30.77;;
62832;SDS011;48891;49.220;6.920;2023-02-15T04:43:27;52.40;;;31.48;;
62832;SDS011;48891;49.220;6.920;2023-02-15T04:45:52;54.03;;;31.85;;
62832;SDS011;48891;49.220;6.920;2023-02-15T04:48:17;56.77;;;32.80;;
62832;SDS011;48891;49.220;6.920;2023-02-15T04:50:43;56.58;;;33.55;;
62832;SDS011;48891;49.220;6.920;2023-02-15T04:53:08;55.55;;;32.33;;
62832;SDS011;48891;49.220;6.920;2023-02-15T04:55:33;57.30;;;33.22;;
62832;SDS011;48891;49.220;6.920;2023-02-15T04:57:59;53.17;;;31.30;;
62832;SDS011;48891;49.220;6.920;2023-02-15T05:00:24;55.70;;;31.17;;
62832;SDS011;48891;49.220;6.920;2023-02-15T05:02:49;52.00;;;30.42;;
62832;SDS011;48891;49.220;6.920;2023-02-15T05:05:14;55.55;;;32.28;;
62832;SDS011;48891;49.220;6.920;2023-02-15T05:07:39;52.47;;;30.07;;
62832;SDS011;48891;49.220;6.920;2023-02-15T05:10:05;51.75;;;30.27;;
62832;SDS011;48891;49.220;6.920;2023-02-15T05:12:30;50.92;;;30.77;;
62832;SDS011;48891;49.220;6.920;2023-02-15T05:14:55;54.20;;;31.73;;
62832;SDS011;48891;49.220;6.920;2023-02-15T05:17:20;51.25;;;30.60;;
62832;SDS011;48891;49.220;6.920;2023-02-15T05:19:45;52.22;;;29.15;;
62832;SDS011;48891;49.220;6.920;2023-02-15T05:22:10;50.63;;;30.42;;
62832;SDS011;48891;49.220;6.920;2023-02-15T05:24:35;50.63;;;30.27;;
62832;SDS011;48891;49.220;6.920;2023-02-15T05:27:01;48.15;;;29.85;;
62832;SDS011;48891;49.220;6.920;2023-02-15T05:29:26;47.00;;;27.33;;
62832;SDS011;48891;49.220;6.920;2023-02-15T05:31:51;52.03;;;30.17;;
62832;SDS011;48891;49.220;6.920;2023-02-15T05:34:16;48.45;;;28.38;;
62832;SDS011;48891;49.220;6.920;2023-02-15T05:36:41;48.17;;;28.83;;
62832;SDS011;48891;49.220;6.920;2023-02-15T05:39:06;51.42;;;29.50;;
62832;SDS011;48891;49.220;6.920;2023-02-15T05:41:31;49.63;;;29.70;;
62832;SDS011;48891;49.220;6.920;2023-02-15T05:43:56;46.00;;;26.67;;
62832;SDS011;48891;49.220;6.920;2023-02-15T05:46:22;48.10;;;28.13;;
62832;SDS011;48891;49.220;6.920;2023-02-15T05:48:47;47.10;;;28.45;;
62832;SDS011;48891;49.220;6.920;2023-02-15T05:51:12;45.88;;;27.52;;
62832;SDS011;48891;49.220;6.920;2023-02-15T05:53:38;47.10;;;27.85;;
62832;SDS011;48891;49.220;6.920;2023-02-15T05:56:04;44.15;;;26.25;;
62832;SDS011;48891;49.220;6.920;2023-02-15T05:58:30;47.40;;;27.00;;
62832;SDS011;48891;49.220;6.920;2023-02-15T06:00:55;48.40;;;27.98;;
62832;SDS011;48891;49.220;6.920;2023-02-15T06:03:21;47.72;;;28.13;;
62832;SDS011;48891;49.220;6.920;2023-02-15T06:05:46;45.78;;;26.92;;
62832;SDS011;48891;49.220;6.920;2023-02-15T06:08:11;41.42;;;25.88;;
62832;SDS011;48891;49.220;6.920;2023-02-15T06:10:36;43.78;;;24.85;;
62832;SDS011;48891;49.220;6.920;2023-02-15T06:13:01;44.97;;;27.00;;
62832;SDS011;48891;49.220;6.920;2023-02-15T06:15:27;45.20;;;26.83;;
62832;SDS011;48891;49.220;6.920;2023-02-15T06:17:52;44.63;;;26.17;;
62832;SDS011;48891;49.220;6.920;2023-02-15T06:20:17;40.03;;;24.90;;
62832;SDS011;48891;49.220;6.920;2023-02-15T06:22:42;45.23;;;26.57;;
62832;SDS011;48891;49.220;6.920;2023-02-15T06:25:07;43.38;;;25.58;;
62832;SDS011;48891;49.220;6.920;2023-02-15T06:27:32;44.58;;;25.65;;
62832;SDS011;48891;49.220;6.920;2023-02-15T06:29:57;42.00;;;24.85;;
62832;SDS011;48891;49.220;6.920;2023-02-15T06:32:22;42.47;;;25.67;;
62832;SDS011;48891;49.220;6.920;2023-02-15T06:34:48;42.42;;;25.15;;
62832;SDS011;48891;49.220;6.920;2023-02-15T06:37:13;44.67;;;26.38;;
62832;SDS011;48891;49.220;6.920;2023-02-15T06:39:38;41.17;;;24.55;;
62832;SDS011;48891;49.220;6.920;2023-02-15T06:42:03;41.35;;;25.35;;
62832;SDS011;48891;49.220;6.920;2023-02-15T06:44:28;44.42;;;26.52;;
62832;SDS011;48891;49.220;6.920;2023-02-15T06:46:53;44.83;;;24.47;;
62832;SDS011;48891;49.220;6.920;2023-02-15T06:49:18;44.53;;;26.20;;
62832;SDS011;48891;49.220;6.920;2023-02-15T06:51:43;44.75;;;25.63;;
62832;SDS011;48891;49.220;6.920;2023-02-15T06:54:09;41.72;;;24.13;;
62832;SDS011;48891;49.220;6.920;2023-02-15T06:56:34;45.07;;;24.97;;
62832;SDS011;48891;49.220;6.920;2023-02-15T06:58:59;42.55;;;25.20;;
62832;SDS011;48891;49.220;6.920;2023-02-15T07:01:24;39.67;;;24.60;;
62832;SDS011;48891;49.220;6.920;2023-02-15T07:03:49;43.53;;;25.30;;
62832;SDS011;48891;49.220;6.920;2023-02-15T07:06:14;44.20;;;26.67;;
62832;SDS011;48891;49.220;6.920;2023-02-15T07:08:39;44.33;;;26.10;;
62832;SDS011;48891;49.220;6.920;2023-02-15T07:11:05;43.08;;;26.63;;
62832;SDS011;48891;49.220;6.920;2023-02-15T07:13:30;47.05;;;26.90;;
62832;SDS011;48891;49.220;6.920;2023-02-15T07:15:55;45.92;;;27.17;;
62832;SDS011;48891;49.220;6.920;2023-02-15T07:18:20;44.90;;;25.95;;
62832;SDS011;48891;49.220;6.920;2023-02-15T07:20:46;42.75;;;25.88;;
62832;SDS011;48891;49.220;6.920;2023-02-15T07:23:11;40.78;;;24.77;;
62832;SDS011;48891;49.220;6.920;2023-02-15T07:25:36;43.65;;;26.10;;
62832;SDS011;48891;49.220;6.920;2023-02-15T07:28:02;46.63;;;26.67;;
62832;SDS011;48891;49.220;6.920;2023-02-15T07:30:28;47.58;;;27.70;;
62832;SDS011;48891;49.220;6.920;2023-02-15T07:32:56;44.42;;;26.92;;
62832;SDS011;48891;49.220;6.920;2023-02-15T07:35:21;44.63;;;26.80;;
62832;SDS011;48891;49.220;6.920;2023-02-15T07:37:46;45.10;;;26.77;;
62832;SDS011;48891;49.220;6.920;2023-02-15T07:40:12;43.42;;;27.15;;
62832;SDS011;48891;49.220;6.920;2023-02-15T07:42:37;45.33;;;28.00;;
62832;SDS011;48891;49.220;6.920;2023-02-15T07:45:02;44.80;;;27.08;;
62832;SDS011;48891;49.220;6.920;2023-02-15T07:47:27;43.28;;;26.52;;
62832;SDS011;48891;49.220;6.920;2023-02-15T07:49:52;45.17;;;27.25;;
62832;SDS011;48891;49.220;6.920;2023-02-15T07:52:17;47.10;;;28.45;;
62832;SDS011;48891;49.220;6.920;2023-02-15T07:54:42;42.25;;;27.70;;
62832;SDS011;48891;49.220;6.920;2023-02-15T07:57:07;42.75;;;26.40;;
62832;SDS011;48891;49.220;6.920;2023-02-15T07:59:32;47.20;;;28.85;;
62832;SDS011;48891;49.220;6.920;2023-02-15T08:01:58;44.15;;;27.63;;
62832;SDS011;48891;49.220;6.920;2023-02-15T08:04:23;48.55;;;28.80;;
62832;SDS011;48891;49.220;6.920;2023-02-15T08:06:51;49.20;;;29.90;;
62832;SDS011;48891;49.220;6.920;2023-02-15T08:09:16;48.08;;;29.15;;
62832;SDS011;48891;49.220;6.920;2023-02-15T08:11:41;48.17;;;29.98;;
62832;SDS011;48891;49.220;6.920;2023-02-15T08:16:42;49.22;;;29.75;;
62832;SDS011;48891;49.220;6.920;2023-02-15T08:21:40;47.25;;;29.73;;
62832;SDS011;48891;49.220;6.920;2023-02-15T08:24:05;46.60;;;29.88;;
62832;SDS011;48891;49.220;6.920;2023-02-15T08:26:31;51.75;;;31.50;;
62832;SDS011;48891;49.220;6.920;2023-02-15T08:28:57;48.05;;;30.27;;
62832;SDS011;48891;49.220;6.920;2023-02-15T08:31:22;52.08;;;32.20;;
62832;SDS011;48891;49.220;6.920;2023-02-15T08:33:48;50.73;;;30.87;;
62832;SDS011;48891;49.220;6.920;2023-02-15T08:36:14;46.00;;;29.35;;
62832;SDS011;48891;49.220;6.920;2023-02-15T08:38:40;50.15;;;31.30;;
62832;SDS011;48891;49.220;6.920;2023-02-15T08:41:09;48.67;;;30.50;;
62832;SDS011;48891;49.220;6.920;2023-02-15T08:43:34;50.00;;;32.83;;
62832;SDS011;48891;49.220;6.920;2023-02-15T08:45:59;47.70;;;30.60;;
62832;SDS011;48891;49.220;6.920;2023-02-15T08:48:25;48.33;;;30.90;;
62832;SDS011;48891;49.220;6.920;2023-02-15T08:50:50;51.03;;;31.48;;
62832;SDS011;48891;49.220;6.920;2023-02-15T08:53:15;49.97;;;31.83;;
62832;SDS011;48891;49.220;6.920;2023-02-15T08:55:40;50.55;;;32.42;;
62832;SDS011;48891;49.220;6.920;2023-02-15T08:58:05;49.88;;;32.70;;
62832;SDS011;48891;49.220;6.920;2023-02-15T09:00:30;47.40;;;31.75;;
62832;SDS011;48891;49.220;6.920;2023-02-15T09:02:55;48.78;;;32.17;;
62832;SDS011;48891;49.220;6.920;2023-02-15T09:05:20;48.50;;;31.65;;
62832;SDS011;48891;49.220;6.920;2023-02-15T09:07:46;48.38;;;32.80;;
62832;SDS011;48891;49.220;6.920;2023-02-15T09:10:11;52.10;;;32.47;;
62832;SDS011;48891;49.220;6.920;2023-02-15T09:12:36;51.42;;;32.97;;
62832;SDS011;48891;49.220;6.920;2023-02-15T09:15:01;52.38;;;33.92;;
62832;SDS011;48891;49.220;6.920;2023-02-15T09:17:26;55.67;;;35.03;;
62832;SDS011;48891;49.220;6.920;2023-02-15T09:19:51;54.38;;;34.45;;
62832;SDS011;48891;49.220;6.920;2023-02-15T09:22:16;51.47;;;33.70;;
62832;SDS011;48891;49.220;6.920;2023-02-15T09:24:41;52.45;;;34.15;;
62832;SDS011;48891;49.220;6.920;2023-02-15T09:27:06;51.45;;;34.72;;
62832;SDS011;48891;49.220;6.920;2023-02-15T09:29:32;55.30;;;36.05;;
62832;SDS011;48891;49.220;6.920;2023-02-15T09:31:57;53.08;;;34.88;;
62832;SDS011;48891;49.220;6.920;2023-02-15T09:34:22;55.78;;;35.80;;
62832;SDS011;48891;49.220;6.920;2023-02-15T09:36:47;53.17;;;36.17;;
62832;SDS011;48891;49.220;6.920;2023-02-15T09:39:16;56.65;;;36.03;;
62832;SDS011;48891;49.220;6.920;2023-02-15T09:46:42;58.80;;;36.97;;
62832;SDS011;48891;49.220;6.920;2023-02-15T09:49:36;55.25;;;37.05;;
62832;SDS011;48891;49.220;6.920;2023-02-15T09:52:31;55.30;;;36.17;;
62832;SDS011;48891;49.220;6.920;2023-02-15T09:57:29;53.25;;;35.92;;
62832;SDS011;48891;49.220;6.920;2023-02-15T10:05:20;54.97;;;35.77;;
62832;SDS011;48891;49.220;6.920;2023-02-15T10:07:55;53.72;;;35.03;;
62832;SDS011;48891;49.220;6.920;2023-02-15T10:12:57;53.28;;;36.83;;
62832;SDS011;48891;49.220;6.920;2023-02-15T10:15:28;57.80;;;36.08;;
62832;SDS011;48891;49.220;6.920;2023-02-15T10:18:05;57.13;;;37.40;;
62832;SDS011;48891;49.220;6.920;2023-02-15T10:28:33;55.55;;;36.80;;
62832;SDS011;48891;49.220;6.920;2023-02-15T10:31:14;57.92;;;37.53;;
62832;SDS011;48891;49.220;6.920;2023-02-15T10:33:42;57.15;;;37.58;;
62832;SDS011;48891;49.220;6.920;2023-02-15T10:36:14;55.85;;;37.85;;
62832;SDS011;48891;49.220;6.920;2023-02-15T10:38:49;57.28;;;38.53;;
62832;SDS011;48891;49.220;6.920;2023-02-15T10:54:36;55.80;;;37.45;;
62832;SDS011;48891;49.220;6.920;2023-02-15T11:07:21;60.95;;;39.85;;
62832;SDS011;48891;49.220;6.920;2023-02-15T11:09:48;57.30;;;38.70;;
62832;SDS011;48891;49.220;6.920;2023-02-15T11:12:16;58.65;;;39.08;;
62832;SDS011;48891;49.220;6.920;2023-02-15T11:14:46;60.38;;;38.58;;
62832;SDS011;48891;49.220;6.920;2023-02-15T11:17:13;57.78;;;38.67;;
62832;SDS011;48891;49.220;6.920;2023-02-15T11:19:41;52.33;;;37.25;;
62832;SDS011;48891;49.220;6.920;2023-02-15T11:22:09;57.90;;;38.13;;
62832;SDS011;48891;49.220;6.920;2023-02-15T11:24:41;57.55;;;38.78;;
62832;SDS011;48891;49.220;6.920;2023-02-15T11:29:41;59.65;;;38.92;;
62832;SDS011;48891;49.220;6.920;2023-02-15T11:32:20;56.63;;;39.53;;
62832;SDS011;48891;49.220;6.920;2023-02-15T11:34:53;57.88;;;40.15;;
62832;SDS011;48891;49.220;6.920;2023-02-15T11:37:21;59.40;;;40.05;;
62832;SDS011;48891;49.220;6.920;2023-02-15T11:42:14;58.25;;;38.97;;
62832;SDS011;48891;49.220;6.920;2023-02-15T11:45:02;56.88;;;40.25;;
62832;SDS011;48891;49.220;6.920;2023-02-15T11:47:30;59.70;;;39.00;;
62832;SDS011;48891;49.220;6.920;2023-02-15T11:49:56;59.90;;;39.90;;
62832;SDS011;48891;49.220;6.920;2023-02-15T11:52:21;59.85;;;40.40;;
62832;SDS011;48891;49.220;6.920;2023-02-15T11:54:46;60.17;;;41.72;;
62832;SDS011;48891;49.220;6.920;2023-02-15T11:57:18;57.67;;;40.45;;
62832;SDS011;48891;49.220;6.920;2023-02-15T11:59:46;60.70;;;40.70;;
62832;SDS011;48891;49.220;6.920;2023-02-15T12:02:17;60.15;;;39.53;;
62832;SDS011;48891;49.220;6.920;2023-02-15T12:04:43;55.50;;;37.45;;
62832;SDS011;48891;49.220;6.920;2023-02-15T12:07:17;52.95;;;37.65;;
62832;SDS011;48891;49.220;6.920;2023-02-15T12:10:46;59.65;;;39.78;;
62832;SDS011;48891;49.220;6.920;2023-02-15T12:12:39;58.22;;;39.53;;
62832;SDS011;48891;49.220;6.920;2023-02-15T12:15:05;59.08;;;39.67;;
62832;SDS011;48891;49.220;6.920;2023-02-15T12:17:32;53.58;;;37.95;;
62832;SDS011;48891;49.220;6.920;2023-02-15T12:20:02;57.78;;;39.50;;
62832;SDS011;48891;49.220;6.920;2023-02-15T12:22:34;58.13;;;39.33;;
62832;SDS011;48891;49.220;6.920;2023-02-15T12:25:01;56.10;;;38.67;;
62832;SDS011;48891;49.220;6.920;2023-02-15T12:27:28;55.17;;;39.00;;
62832;SDS011;48891;49.220;6.920;2023-02-15T12:30:36;55.20;;;37.10;;
62832;SDS011;48891;49.220;6.920;2023-02-15T12:32:47;55.92;;;38.33;;
62832;SDS011;48891;49.220;6.920;2023-02-15T12:35:14;56.80;;;37.90;;
62832;SDS011;48891;49.220;6.920;2023-02-15T12:37:40;56.90;;;38.97;;
62832;SDS011;48891;49.220;6.920;2023-02-15T12:40:24;54.30;;;38.53;;
62832;SDS011;48891;49.220;6.920;2023-02-15T12:42:49;55.92;;;39.10;;
62832;SDS011;48891;49.220;6.920;2023-02-15T12:45:22;55.15;;;38.05;;
62832;SDS011;48891;49.220;6.920;2023-02-15T12:47:48;56.95;;;38.42;;
62832;SDS011;48891;49.220;6.920;2023-02-15T12:50:32;55.85;;;38.30;;
62832;SDS011;48891;49.220;6.920;2023-02-15T12:53:08;56.65;;;38.42;;
62832;SDS011;48891;49.220;6.920;2023-02-15T12:55:37;55.83;;;38.65;;
62832;SDS011;48891;49.220;6.920;2023-02-15T12:58:15;52.65;;;36.55;;
62832;SDS011;48891;49.220;6.920;2023-02-15T13:00:41;55.22;;;37.92;;
62832;SDS011;48891;49.220;6.920;2023-02-15T13:03:14;55.35;;;37.38;;
62832;SDS011;48891;49.220;6.920;2023-02-15T13:05:41;54.13;;;37.95;;
62832;SDS011;48891;49.220;6.920;2023-02-15T13:10:59;52.42;;;36.78;;
62832;SDS011;48891;49.220;6.920;2023-02-15T13:13:32;55.70;;;37.55;;
62832;SDS011;48891;49.220;6.920;2023-02-15T13:15:59;55.15;;;36.83;;
62832;SDS011;48891;49.220;6.920;2023-02-15T13:20:55;55.90;;;38.10;;
62832;SDS011;48891;49.220;6.920;2023-02-15T13:23:27;52.65;;;36.45;;
62832;SDS011;48891;49.220;6.920;2023-02-15T13:25:53;54.33;;;36.10;;
62832;SDS011;48891;49.220;6.920;2023-02-15T13:28:19;55.60;;;37.17;;
62832;SDS011;48891;49.220;6.920;2023-02-15T13:30:47;49.47;;;34.78;;
62832;SDS011;48891;49.220;6.920;2023-02-15T13:33:17;53.90;;;36.53;;
62832;SDS011;48891;49.220;6.920;2023-02-15T13:35:50;52.90;;;36.40;;
62832;SDS011;48891;49.220;6.920;2023-02-15T13:40:58;52.25;;;36.65;;
62832;SDS011;48891;49.220;6.920;2023-02-15T13:48:24;49.95;;;35.75;;
62832;SDS011;48891;49.220;6.920;2023-02-15T13:53:38;52.47;;;35.80;;
62832;SDS011;48891;49.220;6.920;2023-02-15T13:56:11;53.38;;;36.83;;
62832;SDS011;48891;49.220;6.920;2023-02-15T14:12:19;52.63;;;36.40;;
62832;SDS011;48891;49.220;6.920;2023-02-15T14:15:34;53.95;;;37.47;;
62832;SDS011;48891;49.220;6.920;2023-02-15T14:25:13;53.72;;;36.45;;
62832;SDS011;48891;49.220;6.920;2023-02-15T14:27:43;50.92;;;36.13;;
62832;SDS011;48891;49.220;6.920;2023-02-15T14:30:20;48.55;;;37.03;;
62832;SDS011;48891;49.220;6.920;2023-02-15T14:32:47;52.67;;;37.33;;
62832;SDS011;48891;49.220;6.920;2023-02-15T14:35:14;51.15;;;36.72;;
62832;SDS011;48891;49.220;6.920;2023-02-15T14:40:10;53.58;;;36.90;;
62832;SDS011;48891;49.220;6.920;2023-02-15T14:42:47;54.25;;;37.20;;
62832;SDS011;48891;49.220;6.920;2023-02-15T14:45:18;53.45;;;37.33;;
62832;SDS011;48891;49.220;6.920;2023-02-15T14:47:44;53.28;;;36.65;;
62832;SDS011;48891;49.220;6.920;2023-02-15T14:53:22;52.20;;;37.25;;
62832;SDS011;48891;49.220;6.920;2023-02-15T14:55:42;54.60;;;38.20;;
62832;SDS011;48891;49.220;6.920;2023-02-15T14:58:10;50.53;;;35.60;;
62832;SDS011;48891;49.220;6.920;2023-02-15T15:00:37;51.60;;;36.28;;
62832;SDS011;48891;49.220;6.920;2023-02-15T15:03:02;51.97;;;36.08;;
62832;SDS011;48891;49.220;6.920;2023-02-15T15:05:35;49.28;;;35.58;;
62832;SDS011;48891;49.220;6.920;2023-02-15T15:08:01;54.58;;;37.13;;
62832;SDS011;48891;49.220;6.920;2023-02-15T15:10:38;53.15;;;36.17;;
62832;SDS011;48891;49.220;6.920;2023-02-15T15:13:34;52.85;;;38.08;;
62832;SDS011;48891;49.220;6.920;2023-02-15T15:15:49;51.08;;;37.25;;
62832;SDS011;48891;49.220;6.920;2023-02-15T15:21:01;52.90;;;36.95;;
62832;SDS011;48891;49.220;6.920;2023-02-15T15:23:37;52.50;;;37.23;;
62832;SDS011;48891;49.220;6.920;2023-02-15T15:31:30;53.70;;;37.05;;
62832;SDS011;48891;49.220;6.920;2023-02-15T15:41:40;54.45;;;37.88;;
62832;SDS011;48891;49.220;6.920;2023-02-15T15:46:37;55.60;;;38.85;;
62832;SDS011;48891;49.220;6.920;2023-02-15T15:49:15;54.45;;;38.67;;
62832;SDS011;48891;49.220;6.920;2023-02-15T15:51:41;52.97;;;37.80;;
62832;SDS011;48891;49.220;6.920;2023-02-15T15:54:17;51.47;;;37.80;;
62832;SDS011;48891;49.220;6.920;2023-02-15T15:56:44;54.22;;;37.80;;
62832;SDS011;48891;49.220;6.920;2023-02-15T15:59:17;55.80;;;38.97;;
62832;SDS011;48891;49.220;6.920;2023-02-15T16:01:43;56.70;;;40.33;;
62832;SDS011;48891;49.220;6.920;2023-02-15T16:04:13;56.78;;;39.80;;
62832;SDS011;48891;49.220;6.920;2023-02-15T16:06:39;52.65;;;38.90;;
62832;SDS011;48891;49.220;6.920;2023-02-15T16:11:35;52.58;;;39.30;;
62832;SDS011;48891;49.220;6.920;2023-02-15T16:14:01;57.42;;;38.88;;
62832;SDS011;48891;49.220;6.920;2023-02-15T16:16:27;57.40;;;39.70;;
62832;SDS011;48891;49.220;6.920;2023-02-15T16:18:53;56.90;;;39.47;;
62832;SDS011;48891;49.220;6.920;2023-02-15T16:21:20;54.33;;;39.65;;
62832;SDS011;48891;49.220;6.920;2023-02-15T16:29:18;56.00;;;39.45;;
62832;SDS011;48891;49.220;6.920;2023-02-15T16:31:55;54.58;;;37.78;;
62832;SDS011;48891;49.220;6.920;2023-02-15T16:34:21;56.60;;;40.45;;
62832;SDS011;48891;49.220;6.920;2023-02-15T16:36:46;55.17;;;40.33;;
62832;SDS011;48891;49.220;6.920;2023-02-15T16:39:18;56.78;;;39.83;;
62832;SDS011;48891;49.220;6.920;2023-02-15T16:41:43;54.65;;;39.08;;
62832;SDS011;48891;49.220;6.920;2023-02-15T16:44:16;54.90;;;38.10;;
62832;SDS011;48891;49.220;6.920;2023-02-15T16:46:43;55.80;;;38.00;;
62832;SDS011;48891;49.220;6.920;2023-02-15T16:49:41;54.97;;;37.72;;
62832;SDS011;48891;49.220;6.920;2023-02-15T16:52:04;59.95;;;41.45;;
62832;SDS011;48891;49.220;6.920;2023-02-15T16:54:30;56.80;;;40.30;;
62832;SDS011;48891;49.220;6.920;2023-02-15T16:56:55;54.72;;;39.80;;